Time;durP1;ratioP1;P1;durP2;ratioP2;P2;SDS_P1;SDS_P2;PMS_P1;PMS_P2;Temp;Humidity;BMP_temperature;BMP_pressure;BME280_temperature;BME280_humidity;BME280_pressure;Samples;Min_cycle;Max_cycle;Signal;HPM_P1;HPM_P2
2023/03/09 00:00:10;;;;;;;0.50;0.50;;;-0.60;99.90;;;;;;5028978;28;20191;-79
2023/03/09 00:02:36;;;;;;;0.50;0.50;;;-0.70;99.90;;;;;;5025271;28;20192;-79
2023/03/09 00:05:03;;;;;;;0.67;0.67;;;-0.70;99.90;;;;;;5027892;28;20488;-79
2023/03/09 00:07:30;;;;;;;0.50;0.50;;;-0.60;99.90;;;;;;5018430;28;20195;-79
2023/03/09 00:09:56;;;;;;;0.60;0.60;;;-0.60;99.90;;;;;;5027831;28;20469;-79
2023/03/09 00:12:22;;;;;;;0.40;0.40;;;-0.70;99.90;;;;;;5025570;28;20438;-79
2023/03/09 00:14:54;;;;;;;0.50;0.50;;;-0.80;99.90;;;;;;5026220;28;20438;-78
2023/03/09 00:17:19;;;;;;;0.60;0.60;;;-0.70;99.90;;;;;;5029169;28;20528;-79
2023/03/09 00:19:45;;;;;;;0.50;0.50;;;-0.80;99.90;;;;;;5027532;28;20470;-79
2023/03/09 00:22:13;;;;;;;0.60;0.60;;;-0.80;99.90;;;;;;5027650;28;20206;-78
2023/03/09 00:24:45;;;;;;;0.53;0.53;;;-0.90;99.90;;;;;;5029779;28;20706;-79
2023/03/09 00:27:11;;;;;;;0.50;0.50;;;-1.00;99.90;;;;;;5011067;28;20446;-79
2023/03/09 00:29:37;;;;;;;0.60;0.60;;;-1.00;99.90;;;;;;5026839;28;20788;-79
2023/03/09 00:32:03;;;;;;;0.57;0.57;;;-0.90;99.90;;;;;;5026972;28;20453;-79
2023/03/09 00:34:29;;;;;;;0.70;0.70;;;-1.10;99.90;;;;;;5029383;28;20426;-79
2023/03/09 00:36:54;;;;;;;0.63;0.63;;;-1.10;99.90;;;;;;5029005;28;20500;-78
2023/03/09 00:39:23;;;;;;;0.70;0.70;;;-1.20;99.90;;;;;;5011339;28;20195;-78
2023/03/09 00:41:52;;;;;;;0.60;0.60;;;-1.00;99.90;;;;;;5024444;28;20204;-79
2023/03/09 00:47:08;;;;;;;0.60;0.60;;;-0.90;99.90;;;;;;5024208;28;20444;-79
2023/03/09 00:49:58;;;;;;;0.50;0.50;;;-1.00;99.90;;;;;;5025175;28;20450;-78
2023/03/09 00:52:24;;;;;;;0.60;0.60;;;-1.10;99.90;;;;;;5040318;28;20197;-79
2023/03/09 00:54:52;;;;;;;0.60;0.60;;;-0.90;99.90;;;;;;5026254;28;20446;-79
2023/03/09 00:57:25;;;;;;;0.50;0.50;;;-1.00;99.90;;;;;;5029231;28;20191;-79
2023/03/09 00:59:54;;;;;;;0.60;0.60;;;-0.90;99.90;;;;;;5039870;28;20503;-78
2023/03/09 01:02:22;;;;;;;0.60;0.60;;;-1.10;99.90;;;;;;5028109;28;20438;-79
2023/03/09 01:05:27;;;;;;;;;;;;;;;;;;;;;
2023/03/09 01:07:53;;;;;;;0.70;0.70;;;-1.10;99.90;;;;;;5025932;28;20434;-78
2023/03/09 01:10:19;;;;;;;0.60;0.60;;;-0.80;99.90;;;;;;5029629;28;20477;-78
2023/03/09 01:12:45;;;;;;;0.60;0.60;;;-0.90;99.90;;;;;;5029421;28;20466;-78
2023/03/09 01:15:16;;;;;;;0.70;0.70;;;-1.00;99.90;;;;;;5030429;28;20188;-79
2023/03/09 01:17:42;;;;;;;0.70;0.70;;;-1.10;99.90;;;;;;5032219;28;20446;-79
2023/03/09 01:20:09;;;;;;;0.60;0.60;;;-1.10;99.90;;;;;;5043322;28;20551;-78
2023/03/09 01:22:43;;;;;;;0.70;0.70;;;-1.10;99.90;;;;;;5029640;28;20478;-78
2023/03/09 01:25:51;;;;;;;0.70;0.70;;;-1.10;99.90;;;;;;5028020;28;20981;-79
2023/03/09 01:28:16;;;;;;;0.47;0.47;;;-1.10;99.90;;;;;;5036558;28;20468;-79
2023/03/09 01:31:15;;;;;;;0.70;0.70;;;-1.20;99.90;;;;;;5038926;28;20930;-79
2023/03/09 01:37:06;;;;;;;0.60;0.60;;;-1.20;99.90;;;;;;5018250;28;20445;-78
2023/03/09 01:39:32;;;;;;;0.50;0.50;;;-1.30;99.90;;;;;;5037234;28;20446;-78
2023/03/09 01:42:04;;;;;;;0.60;0.60;;;-1.40;99.90;;;;;;5036838;28;20461;-79
2023/03/09 01:44:29;;;;;;;0.50;0.50;;;-1.30;99.90;;;;;;5029659;28;20487;-78
2023/03/09 01:46:56;;;;;;;0.57;0.57;;;-1.30;99.90;;;;;;5033177;28;20445;-78
2023/03/09 01:49:30;;;;;;;0.60;0.60;;;-1.20;99.90;;;;;;5032112;28;20675;-78
2023/03/09 01:52:17;;;;;;;0.60;0.60;;;-1.30;99.90;;;;;;5028756;28;20457;-78
2023/03/09 01:54:46;;;;;;;0.60;0.60;;;-1.30;99.90;;;;;;5017401;28;20441;-78
2023/03/09 01:57:20;;;;;;;0.60;0.60;;;-1.30;99.90;;;;;;5036148;28;20924;-79
2023/03/09 01:59:48;;;;;;;0.53;0.53;;;-1.40;99.90;;;;;;5031268;28;20540;-79
2023/03/09 02:02:16;;;;;;;0.70;0.70;;;-1.40;99.90;;;;;;5029959;28;20438;-79
2023/03/09 02:04:47;;;;;;;0.67;0.67;;;-1.40;99.90;;;;;;5023530;28;20483;-79
2023/03/09 02:07:16;;;;;;;0.60;0.60;;;-1.30;99.90;;;;;;5029957;28;20512;-79
2023/03/09 02:09:48;;;;;;;0.60;0.60;;;-1.60;99.90;;;;;;5024391;28;20444;-79
2023/03/09 02:12:19;;;;;;;0.50;0.50;;;-1.60;99.90;;;;;;5016733;28;20462;-79
2023/03/09 02:14:45;;;;;;;0.60;0.60;;;-1.50;99.90;;;;;;5025020;28;20446;-78
2023/03/09 02:17:13;;;;;;;0.50;0.50;;;-1.50;99.90;;;;;;5014097;28;20802;-79
2023/03/09 02:19:53;;;;;;;0.53;0.53;;;-1.50;99.90;;;;;;5031850;28;20210;-78
2023/03/09 02:22:18;;;;;;;0.67;0.67;;;-1.60;99.90;;;;;;5027571;28;20457;-78
2023/03/09 02:24:48;;;;;;;0.53;0.53;;;-1.50;99.90;;;;;;5024405;28;20538;-79
2023/03/09 02:27:22;;;;;;;0.70;0.70;;;-1.60;99.90;;;;;;5031633;28;20184;-78
2023/03/09 02:29:48;;;;;;;0.70;0.70;;;-1.50;99.90;;;;;;5034330;28;20479;-78
2023/03/09 02:32:14;;;;;;;0.50;0.50;;;-1.60;99.90;;;;;;5023203;28;20454;-78
2023/03/09 02:34:39;;;;;;;0.60;0.60;;;-1.50;99.90;;;;;;5031518;28;20435;-78
2023/03/09 02:37:21;;;;;;;0.57;0.57;;;-1.50;99.90;;;;;;5027661;28;20438;-78
2023/03/09 02:39:50;;;;;;;0.70;0.70;;;-1.30;99.90;;;;;;5028890;28;20195;-78
2023/03/09 02:42:19;;;;;;;0.60;0.60;;;-1.30;99.90;;;;;;5030113;28;20493;-78
2023/03/09 02:44:46;;;;;;;0.60;0.60;;;-1.40;99.90;;;;;;5030089;28;20536;-79
2023/03/09 02:47:21;;;;;;;0.60;0.60;;;-1.50;99.90;;;;;;5031608;28;20438;-78
2023/03/09 02:49:48;;;;;;;0.60;0.60;;;-1.50;99.90;;;;;;5029996;28;20454;-78
2023/03/09 02:52:14;;;;;;;0.57;0.57;;;-1.40;99.90;;;;;;5016073;28;20454;-79
2023/03/09 02:55:14;;;;;;;0.70;0.70;;;-1.30;99.90;;;;;;5031866;28;20644;-78
2023/03/09 02:57:41;;;;;;;0.53;0.53;;;-1.30;99.90;;;;;;5017053;28;20438;-78
2023/03/09 03:00:08;;;;;;;0.73;0.73;;;-1.30;99.90;;;;;;5030964;28;20423;-78
2023/03/09 03:02:34;;;;;;;0.70;0.70;;;-1.30;99.90;;;;;;5022262;28;20439;-78
2023/03/09 03:05:00;;;;;;;0.70;0.70;;;-1.20;99.90;;;;;;5038986;28;20486;-78
2023/03/09 03:07:26;;;;;;;0.60;0.60;;;-1.20;99.90;;;;;;5016947;28;20448;-78
2023/03/09 03:09:51;;;;;;;0.70;0.70;;;-1.10;99.90;;;;;;5027440;28;20203;-78
2023/03/09 03:12:18;;;;;;;0.60;0.60;;;-1.20;99.90;;;;;;5029014;28;20195;-78
2023/03/09 03:14:44;;;;;;;0.50;0.50;;;-1.10;99.90;;;;;;5036241;28;20199;-78
2023/03/09 03:17:12;;;;;;;0.60;0.60;;;-1.10;99.90;;;;;;5011200;28;20447;-78
2023/03/09 03:19:38;;;;;;;0.60;0.60;;;-1.20;99.90;;;;;;5038987;28;20452;-78
2023/03/09 03:22:13;;;;;;;0.60;0.60;;;-1.10;99.90;;;;;;5014818;28;20434;-78
2023/03/09 03:25:08;;;;;;;0.60;0.60;;;-1.00;99.90;;;;;;5039240;28;20484;-78
2023/03/09 03:33:42;;;;;;;0.60;0.60;;;-0.80;99.90;;;;;;5023941;28;20893;-78
2023/03/09 03:36:14;;;;;;;0.60;0.60;;;-0.80;99.90;;;;;;5032124;28;20521;-78
2023/03/09 03:38:40;;;;;;;0.60;0.60;;;-0.80;99.90;;;;;;5023868;28;20547;-78
2023/03/09 03:41:21;;;;;;;0.60;0.60;;;-0.90;99.90;;;;;;5027667;28;20454;-77
2023/03/09 03:43:47;;;;;;;0.60;0.60;;;-0.90;99.90;;;;;;5015830;28;20482;-78
2023/03/09 03:46:12;;;;;;;0.60;0.60;;;-0.80;99.90;;;;;;5030695;28;20882;-78
2023/03/09 03:48:45;;;;;;;0.57;0.57;;;-0.90;99.90;;;;;;5041443;28;20633;-78
2023/03/09 03:51:10;;;;;;;0.50;0.50;;;-0.90;99.90;;;;;;5029189;28;20219;-78
2023/03/09 03:53:36;;;;;;;0.47;0.47;;;-0.90;99.90;;;;;;5032109;28;20469;-78
2023/03/09 03:56:05;;;;;;;0.60;0.60;;;-0.90;99.90;;;;;;5025473;28;20187;-77
2023/03/09 03:58:31;;;;;;;0.60;0.60;;;-0.90;99.90;;;;;;5045568;28;20444;-77
2023/03/09 04:00:57;;;;;;;0.60;0.60;;;-0.90;99.90;;;;;;5027823;28;20442;-78
2023/03/09 04:03:23;;;;;;;0.50;0.50;;;-0.90;99.90;;;;;;5024392;28;20203;-77
2023/03/09 04:05:48;;;;;;;0.60;0.60;;;-0.80;99.90;;;;;;5031821;28;20194;-77
2023/03/09 04:08:41;;;;;;;0.70;0.70;;;-0.80;99.90;;;;;;5028035;28;20533;-78
2023/03/09 04:11:13;;;;;;;0.60;0.60;;;-0.80;99.90;;;;;;5026207;28;20195;-78
2023/03/09 04:13:39;;;;;;;0.53;0.53;;;-0.80;99.90;;;;;;5021930;28;20458;-78
2023/03/09 04:16:05;;;;;;;0.40;0.40;;;-0.80;99.90;;;;;;5023361;28;20442;-77
2023/03/09 04:18:30;;;;;;;0.60;0.60;;;-0.80;99.90;;;;;;5012882;28;20195;-78
2023/03/09 04:20:56;;;;;;;0.60;0.60;;;-0.80;99.90;;;;;;5020410;28;20442;-78
2023/03/09 04:23:22;;;;;;;0.60;0.60;;;-0.90;99.90;;;;;;5028435;28;20234;-78
2023/03/09 04:26:32;;;;;;;0.50;0.50;;;-0.90;99.90;;;;;;5031567;28;20194;-78
2023/03/09 04:29:35;;;;;;;0.50;0.50;;;-0.90;99.90;;;;;;5038342;28;20190;-78
2023/03/09 04:32:01;;;;;;;0.47;0.47;;;-0.70;99.90;;;;;;5024286;28;20454;-77
2023/03/09 04:34:30;;;;;;;0.60;0.60;;;-0.80;99.90;;;;;;5025200;28;20584;-77
2023/03/09 04:36:55;;;;;;;0.70;0.70;;;-0.70;99.90;;;;;;5018754;28;20187;-78
2023/03/09 04:39:21;;;;;;;0.50;0.50;;;-0.70;99.90;;;;;;5011415;28;20457;-78
2023/03/09 04:41:46;;;;;;;0.60;0.60;;;-0.80;99.90;;;;;;5039782;28;20188;-78
2023/03/09 04:44:14;;;;;;;0.60;0.60;;;-0.90;99.90;;;;;;5040531;28;20797;-78
2023/03/09 04:46:40;;;;;;;0.50;0.50;;;-0.80;99.90;;;;;;5020779;28;20265;-78
2023/03/09 04:49:06;;;;;;;0.60;0.60;;;-0.80;99.90;;;;;;5038133;28;20983;-78
2023/03/09 04:51:37;;;;;;;0.50;0.50;;;-0.80;99.90;;;;;;5031233;28;20187;-77
2023/03/09 04:54:02;;;;;;;0.43;0.43;;;-0.90;99.90;;;;;;5037163;28;20262;-77
2023/03/09 04:56:28;;;;;;;0.60;0.60;;;-0.90;99.90;;;;;;5045972;28;20536;-78
2023/03/09 05:05:49;;;;;;;0.53;0.53;;;-1.10;99.90;;;;;;5029633;28;20843;-77
2023/03/09 05:08:15;;;;;;;0.50;0.50;;;-1.00;99.90;;;;;;5014174;28;20442;-78
2023/03/09 05:11:13;;;;;;;0.60;0.60;;;-0.90;99.90;;;;;;5031053;28;20449;-78
2023/03/09 05:17:17;;;;;;;0.53;0.53;;;-1.00;99.90;;;;;;4975680;28;20444;-78
2023/03/09 05:19:43;;;;;;;0.60;0.60;;;-1.10;99.90;;;;;;5030771;28;20429;-78
2023/03/09 05:22:08;;;;;;;0.50;0.50;;;-1.10;99.90;;;;;;5034517;28;20472;-78
2023/03/09 05:24:53;;;;;;;0.60;0.60;;;-1.20;99.90;;;;;;5016403;28;20222;-77
2023/03/09 05:27:18;;;;;;;0.60;0.60;;;-1.20;99.90;;;;;;5034836;28;20266;-78
2023/03/09 05:29:44;;;;;;;0.50;0.50;;;-1.10;99.90;;;;;;5037547;28;21011;-78
2023/03/09 05:32:15;;;;;;;0.70;0.70;;;-1.10;99.90;;;;;;5039951;28;20543;-78
2023/03/09 05:34:41;;;;;;;0.60;0.60;;;-0.90;99.90;;;;;;5024210;28;20265;-77
2023/03/09 05:37:09;;;;;;;0.50;0.50;;;-0.90;99.90;;;;;;5036310;28;20410;-78
2023/03/09 05:39:36;;;;;;;0.70;0.70;;;-1.00;99.90;;;;;;5033003;28;20313;-78
2023/03/09 05:42:01;;;;;;;0.70;0.70;;;-1.10;99.90;;;;;;5026070;28;20508;-78
2023/03/09 05:44:36;;;;;;;0.60;0.60;;;-1.30;99.90;;;;;;5015299;28;20486;-77
2023/03/09 05:47:02;;;;;;;0.60;0.60;;;-1.30;99.90;;;;;;5035392;28;20179;-77
2023/03/09 05:49:30;;;;;;;0.60;0.60;;;-1.20;99.90;;;;;;5026175;28;21207;-77
2023/03/09 05:51:57;;;;;;;0.60;0.60;;;-1.30;99.90;;;;;;5030060;28;20291;-77
2023/03/09 05:54:23;;;;;;;0.60;0.60;;;-1.30;99.90;;;;;;5022695;28;20434;-77
2023/03/09 05:56:56;;;;;;;0.60;0.60;;;-1.20;99.90;;;;;;5033554;28;20457;-77
2023/03/09 06:02:44;;;;;;;0.60;0.60;;;-1.30;99.90;;;;;;5030979;28;20445;-77
2023/03/09 06:05:10;;;;;;;0.70;0.70;;;-1.20;99.90;;;;;;5019593;28;20504;-78
2023/03/09 06:07:35;;;;;;;0.70;0.70;;;-1.30;99.90;;;;;;5025895;28;20443;-77
2023/03/09 06:10:32;;;;;;;0.53;0.53;;;-1.30;99.90;;;;;;5031602;28;20187;-77
2023/03/09 06:13:00;;;;;;;0.60;0.60;;;-1.20;99.90;;;;;;5020503;28;20249;-77
2023/03/09 06:15:26;;;;;;;0.50;0.50;;;-1.20;99.90;;;;;;5030943;28;20467;-78
2023/03/09 06:17:52;;;;;;;0.60;0.60;;;-1.30;99.90;;;;;;5013949;28;20956;-77
2023/03/09 06:20:20;;;;;;;0.70;0.70;;;-1.20;99.90;;;;;;5031517;28;20560;-77
2023/03/09 06:22:48;;;;;;;0.40;0.40;;;-1.20;99.90;;;;;;5025223;28;20192;-77
2023/03/09 06:25:14;;;;;;;0.60;0.60;;;-1.10;99.90;;;;;;5020471;28;20482;-77
2023/03/09 06:27:46;;;;;;;0.70;0.70;;;-1.10;99.90;;;;;;5030800;28;20461;-78
2023/03/09 06:30:21;;;;;;;0.60;0.60;;;-1.00;99.90;;;;;;5028227;28;20500;-77
2023/03/09 06:36:01;;;;;;;0.50;0.50;;;-1.00;99.90;;;;;;5028120;28;20442;-77
2023/03/09 06:38:26;;;;;;;0.57;0.57;;;-0.90;99.90;;;;;;5024588;28;20541;-78
2023/03/09 06:40:56;;;;;;;0.50;0.50;;;-0.80;99.90;;;;;;5034903;28;21206;-78
2023/03/09 06:43:22;;;;;;;0.50;0.50;;;-0.80;99.90;;;;;;5020627;28;20243;-77
2023/03/09 06:45:48;;;;;;;0.50;0.50;;;-0.80;99.90;;;;;;5027023;28;20486;-77
2023/03/09 06:48:14;;;;;;;0.50;0.50;;;-0.70;99.90;;;;;;5021216;28;20935;-77
2023/03/09 06:50:39;;;;;;;0.40;0.40;;;-0.80;99.90;;;;;;5019955;28;20597;-77
2023/03/09 06:53:05;;;;;;;0.70;0.70;;;-0.70;99.90;;;;;;5029365;28;20541;-77
2023/03/09 06:55:31;;;;;;;0.50;0.50;;;-0.60;99.90;;;;;;5028851;28;20194;-77
2023/03/09 06:57:56;;;;;;;0.57;0.57;;;-0.60;99.90;;;;;;5028497;28;20271;-77
2023/03/09 07:00:22;;;;;;;0.60;0.60;;;-0.60;99.90;;;;;;5029497;28;20644;-76
2023/03/09 07:02:48;;;;;;;0.50;0.50;;;-0.60;99.90;;;;;;5020543;28;20223;-77
2023/03/09 07:05:14;;;;;;;0.60;0.60;;;-0.50;99.90;;;;;;5029090;28;20285;-77
2023/03/09 07:07:43;;;;;;;0.50;0.50;;;-0.50;99.90;;;;;;5028572;28;20945;-77
2023/03/09 07:10:10;;;;;;;0.50;0.50;;;-0.40;99.90;;;;;;5027907;28;20198;-79
2023/03/09 07:12:36;;;;;;;0.50;0.50;;;-0.40;99.90;;;;;;5042454;28;20448;-79
2023/03/09 07:15:02;;;;;;;0.50;0.50;;;-0.20;99.90;;;;;;5031462;28;20478;-79
2023/03/09 07:17:27;;;;;;;0.50;0.50;;;-0.10;99.90;;;;;;5030274;28;20188;-78
2023/03/09 07:19:53;;;;;;;0.47;0.47;;;-0.10;99.90;;;;;;5015213;28;20184;-78
2023/03/09 07:22:18;;;;;;;0.40;0.40;;;0.10;99.90;;;;;;5026075;28;20721;-78
2023/03/09 07:24:44;;;;;;;0.50;0.50;;;0.10;99.90;;;;;;5033592;28;20301;-78
2023/03/09 07:27:10;;;;;;;0.50;0.50;;;0.30;99.90;;;;;;5031514;28;20183;-78
2023/03/09 07:29:35;;;;;;;0.50;0.50;;;0.40;99.90;;;;;;5033764;28;20186;-79
2023/03/09 07:32:02;;;;;;;0.60;0.60;;;0.40;99.90;;;;;;5028558;28;20194;-78
2023/03/09 07:34:28;;;;;;;0.50;0.50;;;0.50;99.90;;;;;;5031297;28;20207;-79
2023/03/09 07:36:53;;;;;;;0.50;0.50;;;0.60;99.90;;;;;;5028429;28;20462;-79
2023/03/09 07:39:19;;;;;;;0.50;0.50;;;0.80;99.90;;;;;;5030499;28;20800;-78
2023/03/09 07:41:45;;;;;;;0.40;0.40;;;0.80;99.90;;;;;;5024588;28;20202;-79
2023/03/09 07:44:10;;;;;;;0.50;0.50;;;0.80;99.90;;;;;;5009416;28;20498;-79
2023/03/09 07:46:36;;;;;;;0.50;0.50;;;0.80;99.90;;;;;;5007982;28;20196;-79
2023/03/09 07:49:02;;;;;;;0.40;0.40;;;1.00;99.90;;;;;;5011598;28;20199;-79
2023/03/09 07:51:29;;;;;;;0.40;0.40;;;0.90;99.90;;;;;;5023002;28;20184;-79
2023/03/09 07:53:55;;;;;;;0.40;0.40;;;1.00;99.90;;;;;;5031931;28;20844;-80
2023/03/09 07:56:20;;;;;;;0.40;0.40;;;1.10;99.90;;;;;;5028284;28;20492;-79
2023/03/09 07:58:46;;;;;;;0.50;0.50;;;1.20;99.90;;;;;;5029888;28;20188;-79
2023/03/09 08:01:16;;;;;;;0.50;0.50;;;1.10;99.90;;;;;;5028263;28;20187;-79
2023/03/09 08:03:43;;;;;;;0.50;0.50;;;1.30;99.90;;;;;;5030427;28;20636;-79
2023/03/09 08:06:09;;;;;;;0.40;0.40;;;1.40;99.90;;;;;;5027522;28;20450;-78
2023/03/09 08:08:36;;;;;;;0.50;0.50;;;1.40;99.90;;;;;;5028177;28;20453;-79
2023/03/09 08:11:03;;;;;;;0.40;0.40;;;1.40;99.90;;;;;;5027334;28;20817;-80
2023/03/09 08:13:29;;;;;;;0.40;0.40;;;1.60;99.90;;;;;;5029964;28;20418;-79
2023/03/09 08:15:54;;;;;;;0.47;0.47;;;1.60;99.90;;;;;;5029695;28;20941;-79
2023/03/09 08:18:20;;;;;;;0.50;0.50;;;1.70;99.90;;;;;;5030748;28;20411;-79
2023/03/09 08:20:46;;;;;;;0.40;0.40;;;1.70;99.90;;;;;;5029696;28;20262;-79
2023/03/09 08:23:12;;;;;;;0.40;0.40;;;1.80;99.90;;;;;;5029144;28;20763;-79
2023/03/09 08:25:38;;;;;;;0.40;0.40;;;1.80;99.90;;;;;;5030261;28;20557;-79
2023/03/09 08:28:04;;;;;;;0.50;0.50;;;1.90;99.90;;;;;;5025566;28;20541;-79
2023/03/09 08:30:30;;;;;;;0.47;0.47;;;1.90;99.90;;;;;;5030668;28;20452;-79
2023/03/09 08:32:57;;;;;;;0.50;0.50;;;2.00;99.90;;;;;;5027132;28;20457;-79
2023/03/09 08:35:27;;;;;;;0.50;0.50;;;2.10;99.90;;;;;;5030296;28;20422;-79
2023/03/09 08:37:53;;;;;;;0.50;0.50;;;2.00;99.90;;;;;;5030394;28;20414;-79
2023/03/09 08:40:18;;;;;;;0.50;0.50;;;2.10;99.90;;;;;;5029687;28;20464;-79
2023/03/09 08:42:44;;;;;;;0.50;0.50;;;2.10;99.90;;;;;;5028654;28;20242;-79
2023/03/09 08:45:10;;;;;;;0.50;0.50;;;2.20;99.90;;;;;;5029375;28;20227;-79
2023/03/09 08:47:36;;;;;;;0.40;0.40;;;2.10;99.90;;;;;;5029886;28;20659;-80
2023/03/09 08:50:03;;;;;;;0.50;0.50;;;2.20;99.90;;;;;;5029804;28;20432;-79
2023/03/09 08:52:34;;;;;;;0.40;0.40;;;2.30;99.90;;;;;;5030282;28;20270;-79
2023/03/09 08:55:00;;;;;;;0.40;0.40;;;2.60;99.90;;;;;;5028749;28;20456;-79
2023/03/09 08:57:29;;;;;;;0.50;0.50;;;2.70;99.90;;;;;;5011854;28;20815;-79
2023/03/09 08:59:55;;;;;;;0.50;0.50;;;2.70;99.90;;;;;;5029848;28;20438;-79
2023/03/09 09:02:21;;;;;;;0.40;0.40;;;2.80;99.90;;;;;;5010331;28;20499;-79
2023/03/09 09:04:46;;;;;;;0.40;0.40;;;3.00;99.90;;;;;;5028296;28;20288;-79
2023/03/09 09:07:14;;;;;;;0.50;0.50;;;3.00;99.90;;;;;;5038904;28;20528;-80
2023/03/09 09:09:40;;;;;;;0.50;0.50;;;3.20;99.90;;;;;;5025478;28;20184;-79
2023/03/09 09:12:07;;;;;;;0.50;0.50;;;3.30;99.90;;;;;;5019745;28;20450;-79
2023/03/09 09:14:33;;;;;;;0.40;0.40;;;3.40;99.90;;;;;;5028163;28;20460;-79
2023/03/09 09:17:00;;;;;;;0.40;0.40;;;3.50;99.90;;;;;;5002359;28;20486;-79
2023/03/09 09:19:26;;;;;;;0.30;0.30;;;3.80;99.90;;;;;;5034620;28;20885;-79
2023/03/09 09:21:52;;;;;;;0.50;0.50;;;3.90;99.90;;;;;;5010305;28;20443;-80
2023/03/09 09:24:18;;;;;;;0.40;0.40;;;4.20;99.90;;;;;;5012778;28;20544;-80
2023/03/09 09:26:44;;;;;;;0.40;0.40;;;4.70;99.90;;;;;;5009835;28;21302;-78
2023/03/09 09:29:10;;;;;;;0.40;0.40;;;4.80;99.90;;;;;;5031353;28;20460;-80
2023/03/09 09:31:37;;;;;;;0.30;0.30;;;4.40;99.90;;;;;;5035534;28;20527;-80
2023/03/09 09:34:02;;;;;;;0.40;0.40;;;4.70;99.90;;;;;;5019420;28;20441;-80
2023/03/09 09:36:28;;;;;;;0.40;0.40;;;4.70;99.90;;;;;;5032277;28;20442;-80
2023/03/09 09:38:54;;;;;;;0.30;0.30;;;5.20;99.90;;;;;;5012486;28;20553;-80
2023/03/09 09:41:43;;;;;;;0.30;0.30;;;5.40;99.90;;;;;;5026863;28;20275;-80
2023/03/09 09:44:38;;;;;;;0.30;0.30;;;5.60;99.90;;;;;;5010546;28;20478;-80
2023/03/09 09:47:10;;;;;;;0.30;0.30;;;5.40;99.90;;;;;;5025243;28;20490;-79
2023/03/09 09:49:44;;;;;;;0.30;0.30;;;5.20;99.90;;;;;;5028917;28;20438;-80
2023/03/09 09:52:16;;;;;;;0.40;0.40;;;5.20;99.90;;;;;;5026519;28;20446;-80
2023/03/09 09:55:07;;;;;;;0.30;0.30;;;4.80;99.90;;;;;;5024984;28;20504;-80
2023/03/09 09:57:39;;;;;;;0.30;0.30;;;5.20;99.90;;;;;;5028366;28;21232;-79
2023/03/09 10:00:07;;;;;;;0.30;0.30;;;5.10;99.90;;;;;;5025406;28;20956;-79
2023/03/09 10:02:52;;;;;;;0.40;0.40;;;5.30;99.90;;;;;;5026843;28;20445;-79
2023/03/09 10:05:42;;;;;;;0.20;0.20;;;5.80;99.90;;;;;;5027486;28;20588;-79
2023/03/09 10:08:26;;;;;;;0.30;0.30;;;6.40;99.90;;;;;;5024749;28;20835;-80
2023/03/09 10:10:52;;;;;;;0.30;0.30;;;6.40;99.90;;;;;;5025314;28;20438;-80
2023/03/09 10:13:33;;;;;;;0.30;0.30;;;6.70;99.90;;;;;;5029681;28;20441;-80
2023/03/09 10:16:07;;;;;;;0.30;0.30;;;7.20;99.90;;;;;;5031030;28;20828;-80
2023/03/09 10:18:37;;;;;;;0.30;0.30;;;7.50;99.90;;;;;;5026205;28;20880;-78
2023/03/09 10:21:12;;;;;;;0.20;0.20;;;7.80;99.90;;;;;;5026537;28;20454;-78
2023/03/09 10:23:41;;;;;;;0.20;0.20;;;8.00;99.90;;;;;;5018855;28;20446;-79
2023/03/09 10:26:31;;;;;;;0.30;0.30;;;8.30;99.90;;;;;;5024589;28;20453;-78
2023/03/09 10:29:03;;;;;;;0.10;0.10;;;8.40;99.90;;;;;;5024136;28;20450;-78
2023/03/09 10:31:52;;;;;;;0.10;0.10;;;8.30;99.90;;;;;;5035634;28;20510;-80
2023/03/09 10:34:25;;;;;;;0.20;0.20;;;8.80;99.90;;;;;;5020239;28;20457;-80
2023/03/09 10:36:57;;;;;;;0.10;0.10;;;9.30;99.90;;;;;;5036839;28;20443;-78
2023/03/09 10:39:22;;;;;;;0.10;0.10;;;9.70;99.90;;;;;;5012060;28;20448;-78
2023/03/09 10:41:48;;;;;;;0.10;0.10;;;9.70;99.90;;;;;;5013044;28;20446;-78
2023/03/09 10:44:16;;;;;;;0.10;0.10;;;9.10;99.90;;;;;;5019183;28;20231;-78
2023/03/09 10:47:00;;;;;;;0.10;0.10;;;8.20;99.90;;;;;;5025027;28;20187;-78
2023/03/09 10:49:26;;;;;;;0.20;0.20;;;7.30;99.90;;;;;;5017634;28;20442;-77
2023/03/09 10:52:03;;;;;;;0.17;0.17;;;7.90;99.90;;;;;;5031023;28;20460;-80
2023/03/09 10:54:39;;;;;;;0.17;0.17;;;7.60;99.90;;;;;;5032845;28;20477;-80
2023/03/09 10:57:22;;;;;;;0.20;0.20;;;6.80;99.90;;;;;;5030135;28;20450;-80
2023/03/09 11:00:13;;;;;;;0.20;0.20;;;5.80;99.90;;;;;;5011831;28;20449;-80
2023/03/09 11:02:39;;;;;;;0.20;0.20;;;5.80;99.90;;;;;;5029609;28;20450;-81
2023/03/09 11:05:19;;;;;;;0.20;0.20;;;5.40;99.90;;;;;;5029671;28;20486;-79
2023/03/09 11:07:55;;;;;;;0.20;0.20;;;5.50;99.90;;;;;;5025772;28;20275;-80
2023/03/09 11:10:28;;;;;;;0.30;0.30;;;6.10;99.90;;;;;;5030054;28;21012;-80
2023/03/09 11:12:56;;;;;;;0.30;0.30;;;6.30;99.90;;;;;;5027731;28;20817;-81
2023/03/09 11:15:33;;;;;;;0.20;0.20;;;7.00;99.90;;;;;;5029729;28;20481;-81
2023/03/09 11:18:02;;;;;;;0.20;0.20;;;7.90;99.90;;;;;;5028601;28;20450;-80
2023/03/09 11:20:36;;;;;;;0.10;0.10;;;7.60;99.90;;;;;;5032172;28;20455;-79
2023/03/09 11:23:11;;;;;;;0.20;0.20;;;7.30;99.90;;;;;;5036129;28;20522;-79
2023/03/09 11:25:55;;;;;;;0.17;0.17;;;7.10;99.90;;;;;;5037274;28;20476;-79
2023/03/09 11:28:39;;;;;;;0.20;0.20;;;7.10;99.90;;;;;;5046055;28;20454;-79
2023/03/09 11:31:12;;;;;;;0.20;0.20;;;7.60;99.90;;;;;;5036094;28;20888;-78
2023/03/09 11:33:38;;;;;;;0.20;0.20;;;8.40;99.90;;;;;;5036603;28;20910;-78
2023/03/09 11:36:05;;;;;;;0.17;0.17;;;9.30;99.90;;;;;;5023176;28;20517;-79
2023/03/09 11:38:32;;;;;;;0.10;0.10;;;9.10;99.90;;;;;;5030959;28;20183;-79
2023/03/09 11:41:11;;;;;;;0.10;0.10;;;8.70;99.90;;;;;;5028191;28;20860;-79
2023/03/09 11:43:41;;;;;;;0.10;0.10;;;8.90;99.90;;;;;;5027305;28;20829;-79
2023/03/09 11:46:13;;;;;;;0.13;0.13;;;9.10;99.90;;;;;;5040348;28;20464;-79
2023/03/09 11:48:46;;;;;;;0.10;0.10;;;9.00;99.90;;;;;;5020789;28;20510;-79
2023/03/09 11:51:25;;;;;;;0.10;0.10;;;9.10;99.90;;;;;;5021253;28;20549;-80
2023/03/09 11:54:18;;;;;;;0.10;0.10;;;8.80;99.90;;;;;;5024911;28;20873;-81
2023/03/09 11:56:45;;;;;;;0.10;0.10;;;8.90;99.90;;;;;;5028879;28;20457;-80
2023/03/09 11:59:14;;;;;;;0.10;0.10;;;8.20;99.90;;;;;;5017159;28;20441;-80
2023/03/09 12:02:04;;;;;;;0.10;0.10;;;8.00;99.90;;;;;;5024098;28;20446;-81
2023/03/09 12:04:30;;;;;;;0.10;0.10;;;7.60;99.90;;;;;;5007082;28;20471;-83
2023/03/09 12:07:06;;;;;;;0.10;0.10;;;7.60;99.90;;;;;;5026133;28;20445;-81
2023/03/09 12:10:12;;;;;;;0.20;0.20;;;7.40;99.90;;;;;;5029262;28;20182;-84
2023/03/09 12:13:07;;;;;;;0.13;0.13;;;7.00;99.90;;;;;;5024318;28;20508;-80
2023/03/09 12:16:03;;;;;;;0.20;0.20;;;7.00;99.90;;;;;;5011012;28;20524;-80
2023/03/09 12:18:36;;;;;;;0.20;0.20;;;7.50;99.90;;;;;;5011901;28;20884;-81
2023/03/09 12:21:05;;;;;;;0.20;0.20;;;7.90;99.90;;;;;;5029841;28;20441;-81
2023/03/09 12:23:37;;;;;;;0.20;0.20;;;8.30;99.90;;;;;;5028959;28;20438;-81
2023/03/09 12:26:11;;;;;;;0.10;0.10;;;8.70;99.90;;;;;;5030469;28;20484;-81
2023/03/09 12:28:38;;;;;;;0.10;0.10;;;9.10;99.90;;;;;;5028355;28;20464;-78
2023/03/09 12:31:05;;;;;;;0.10;0.10;;;10.40;99.90;;;;;;5030447;28;20419;-79
2023/03/09 12:33:43;;;;;;;0.00;0.00;;;10.60;99.70;;;;;;5030300;28;20434;-82
2023/03/09 12:36:24;;;;;;;0.10;0.10;;;11.50;97.90;;;;;;5026100;28;20810;-81
2023/03/09 12:39:22;;;;;;;0.10;0.10;;;10.60;95.80;;;;;;5029849;28;20536;-81
2023/03/09 12:42:35;;;;;;;0.10;0.10;;;10.00;94.40;;;;;;5026599;28;20434;-81
2023/03/09 12:45:16;;;;;;;0.10;0.10;;;8.90;99.30;;;;;;5014646;28;20477;-81
2023/03/09 12:47:51;;;;;;;0.10;0.10;;;8.90;96.30;;;;;;5019451;28;20523;-80
2023/03/09 12:50:19;;;;;;;0.10;0.10;;;8.90;96.70;;;;;;5028020;28;20453;-81
2023/03/09 12:53:10;;;;;;;0.10;0.10;;;9.50;97.80;;;;;;5009626;28;20605;-79
2023/03/09 12:55:35;;;;;;;0.10;0.10;;;10.10;96.20;;;;;;5021352;28;20533;-78
2023/03/09 12:58:22;;;;;;;0.10;0.10;;;10.30;95.30;;;;;;5023696;28;20534;-78
2023/03/09 13:01:06;;;;;;;0.10;0.10;;;10.80;95.60;;;;;;5029453;28;20195;-80
2023/03/09 13:03:53;;;;;;;0.07;0.07;;;10.70;94.70;;;;;;5020137;28;21395;-78
2023/03/09 13:06:35;;;;;;;0.10;0.10;;;10.70;94.20;;;;;;5032121;28;20548;-79
2023/03/09 13:09:05;;;;;;;0.10;0.10;;;9.30;95.10;;;;;;5027325;28;20912;-81
2023/03/09 13:11:34;;;;;;;0.10;0.10;;;9.10;95.40;;;;;;5030061;28;21091;-82
2023/03/09 13:14:01;;;;;;;0.10;0.10;;;8.30;96.20;;;;;;5031462;28;20449;-82
2023/03/09 13:16:36;;;;;;;0.10;0.10;;;8.10;99.30;;;;;;5029845;28;20442;-81
2023/03/09 13:19:15;;;;;;;0.10;0.10;;;7.80;98.20;;;;;;5036214;28;20475;-81
2023/03/09 13:21:46;;;;;;;0.10;0.10;;;7.40;98.90;;;;;;5019618;28;20442;-81
2023/03/09 13:24:40;;;;;;;0.20;0.20;;;7.50;99.10;;;;;;5039647;28;20476;-80
2023/03/09 13:27:08;;;;;;;0.10;0.10;;;7.50;98.00;;;;;;5038094;28;20499;-81
2023/03/09 13:29:36;;;;;;;0.17;0.17;;;7.30;98.30;;;;;;5037033;28;20441;-80
2023/03/09 13:32:04;;;;;;;0.13;0.13;;;7.50;98.50;;;;;;5020438;28;20434;-81
2023/03/09 13:34:33;;;;;;;0.17;0.17;;;7.60;98.40;;;;;;5032261;28;20456;-81
2023/03/09 13:37:12;;;;;;;0.20;0.20;;;7.30;98.20;;;;;;5042491;28;20525;-81
2023/03/09 13:39:38;;;;;;;0.10;0.10;;;7.50;98.50;;;;;;5034055;28;20497;-81
2023/03/09 13:42:05;;;;;;;0.10;0.10;;;7.30;97.80;;;;;;5039545;28;20876;-81